createdAt,value
2018-01-15T00:00:24.839Z,20.63
2018-01-15T00:02:53.913Z,13.70
2018-01-15T00:05:22.212Z,18.00
2018-01-15T00:07:50.515Z,17.23
2018-01-15T00:10:18.870Z,15.37
2018-01-15T00:12:47.176Z,13.90
2018-01-15T00:15:15.474Z,13.47
2018-01-15T00:17:43.771Z,12.90
2018-01-15T00:20:12.078Z,15.60
2018-01-15T00:22:41.275Z,15.20
2018-01-15T00:25:09.567Z,25.10
2018-01-15T00:27:37.874Z,82.87
2018-01-15T00:30:06.954Z,16.97
2018-01-15T00:32:35.246Z,19.60
2018-01-15T00:35:03.582Z,17.80
2018-01-15T00:37:31.870Z,20.50
2018-01-15T00:40:00.175Z,17.40
2018-01-15T00:42:28.468Z,17.23
2018-01-15T00:44:56.775Z,16.47
2018-01-15T00:47:25.106Z,15.30
2018-01-15T00:49:54.180Z,17.20
2018-01-15T00:52:22.474Z,13.93
2018-01-15T00:54:50.800Z,19.47
2018-01-15T00:57:19.869Z,16.93
2018-01-15T00:59:48.203Z,20.97
2018-01-15T01:02:17.319Z,19.00
2018-01-15T01:04:46.390Z,17.07
2018-01-15T01:07:14.704Z,18.00
2018-01-15T01:09:43.006Z,17.40
2018-01-15T01:12:12.082Z,15.20
2018-01-15T01:14:40.419Z,14.70
2018-01-15T01:17:08.718Z,14.03
2018-01-15T01:19:37.009Z,17.10
2018-01-15T01:22:05.308Z,15.43
2018-01-15T01:24:33.608Z,17.73
2018-01-15T01:27:01.927Z,14.50
2018-01-15T01:29:30.303Z,13.23
2018-01-15T01:31:58.599Z,14.57
2018-01-15T01:34:26.890Z,15.53
2018-01-15T01:36:55.215Z,14.97
2018-01-15T01:39:24.298Z,15.60
2018-01-15T01:41:52.597Z,14.40
2018-01-15T01:44:20.889Z,13.93
2018-01-15T01:46:49.191Z,13.90
2018-01-15T01:49:18.245Z,14.70
2018-01-15T01:51:46.606Z,21.70
2018-01-15T01:54:14.905Z,32.67
2018-01-15T01:56:43.231Z,16.33
2018-01-15T01:59:11.546Z,16.47
2018-01-15T02:01:39.840Z,16.77
2018-01-15T02:04:08.933Z,22.93
2018-01-15T02:06:37.239Z,15.27
2018-01-15T02:09:05.528Z,18.70
2018-01-15T02:11:34.591Z,16.47
2018-01-15T02:14:02.882Z,35.00
2018-01-15T02:16:31.303Z,20.27
2018-01-15T02:18:59.598Z,17.73
2018-01-15T02:21:27.895Z,20.10
2018-01-15T02:23:56.204Z,18.93
2018-01-15T02:26:25.279Z,23.03
2018-01-15T02:28:53.618Z,17.33
2018-01-15T02:31:21.958Z,18.70
2018-01-15T02:33:50.271Z,17.03
2018-01-15T02:36:18.571Z,17.57
2018-01-15T02:38:47.645Z,17.97
2018-01-15T02:41:15.953Z,22.03
2018-01-15T02:43:44.284Z,26.23
2018-01-15T02:46:12.605Z,16.70
2018-01-15T02:48:40.914Z,22.83
2018-01-15T02:51:09.202Z,17.97
2018-01-15T02:53:37.499Z,27.23
2018-01-15T02:56:06.596Z,20.20
2018-01-15T02:58:34.899Z,19.80
2018-01-15T03:01:03.206Z,17.70
2018-01-15T03:03:32.274Z,19.37
2018-01-15T03:06:00.574Z,17.50
2018-01-15T03:08:28.902Z,18.57
2018-01-15T03:10:57.994Z,19.07
2018-01-15T03:13:26.316Z,19.23
2018-01-15T03:15:54.622Z,20.73
2018-01-15T03:18:22.930Z,16.60
2018-01-15T03:20:51.254Z,21.17
2018-01-15T03:23:20.318Z,17.97
2018-01-15T03:25:48.647Z,25.40
2018-01-15T03:28:17.000Z,21.20
2018-01-15T03:30:45.411Z,21.40
2018-01-15T03:33:13.775Z,18.47
2018-01-15T03:35:42.099Z,22.00
2018-01-15T03:38:10.401Z,18.47
2018-01-15T03:40:38.703Z,23.17
2018-01-15T03:43:07.766Z,17.97
2018-01-15T03:45:36.082Z,22.13
2018-01-15T03:48:04.383Z,22.93
2018-01-15T03:50:32.711Z,23.43
2018-01-15T03:53:01.020Z,40.53
2018-01-15T03:55:29.354Z,18.23
2018-01-15T03:57:57.653Z,20.43
2018-01-15T04:00:33.577Z,18.63
2018-01-15T04:03:01.882Z,21.67
2018-01-15T04:05:30.213Z,26.10
2018-01-15T04:07:59.272Z,21.87
2018-01-15T04:10:27.615Z,17.70
2018-01-15T04:12:56.147Z,25.80
2018-01-15T04:15:24.441Z,19.60
2018-01-15T04:17:52.763Z,22.57
2018-01-15T04:20:21.079Z,23.20
2018-01-15T04:22:50.147Z,32.17
2018-01-15T04:25:18.450Z,29.43
2018-01-15T04:27:46.769Z,22.23
2018-01-15T04:30:15.377Z,27.77
2018-01-15T04:32:43.678Z,19.13
2018-01-15T04:35:11.983Z,23.93
2018-01-15T04:37:40.282Z,32.30
2018-01-15T04:40:08.582Z,20.80
2018-01-15T04:42:36.915Z,27.70
2018-01-15T04:45:05.995Z,26.43
2018-01-15T04:47:34.290Z,25.67
2018-01-15T04:50:02.591Z,30.27
2018-01-15T04:52:31.667Z,31.70
2018-01-15T04:55:00.092Z,25.90
2018-01-15T04:57:29.168Z,26.30
2018-01-15T04:59:57.470Z,25.40
2018-01-15T05:02:25.770Z,28.87
2018-01-15T05:04:54.085Z,28.47
2018-01-15T05:07:23.179Z,26.13
2018-01-15T05:09:52.270Z,27.60
2018-01-15T05:12:20.573Z,26.73
2018-01-15T05:14:48.924Z,29.33
2018-01-15T05:17:17.242Z,30.30
2018-01-15T05:19:45.551Z,30.77
2018-01-15T05:22:14.759Z,24.90
2018-01-15T05:24:43.833Z,29.13
2018-01-15T05:27:12.154Z,29.10
2018-01-15T05:29:41.241Z,33.13
2018-01-15T05:32:09.539Z,31.30
2018-01-15T05:34:37.850Z,25.60
2018-01-15T05:37:06.915Z,28.70
2018-01-15T05:39:35.214Z,23.17
2018-01-15T05:42:03.524Z,24.57
2018-01-15T05:44:31.828Z,30.63
2018-01-15T05:47:00.894Z,27.43
2018-01-15T05:49:29.206Z,25.80
2018-01-15T05:51:57.506Z,35.70
2018-01-15T05:54:25.814Z,30.33
2018-01-15T05:56:54.893Z,31.93
2018-01-15T05:59:23.198Z,33.67
2018-01-15T06:01:51.499Z,32.20
2018-01-15T06:04:20.557Z,32.63
2018-01-15T06:06:48.859Z,27.20
2018-01-15T06:09:17.170Z,30.17
2018-01-15T06:11:48.440Z,30.00
2018-01-15T06:14:16.786Z,29.03
2018-01-15T06:16:45.107Z,24.20
2018-01-15T06:19:13.422Z,31.80
2018-01-15T06:21:42.513Z,25.63
2018-01-15T06:24:10.819Z,29.93
2018-01-15T06:26:39.122Z,26.77
2018-01-15T06:29:07.454Z,25.60
2018-01-15T06:31:35.789Z,27.90
2018-01-15T06:34:04.851Z,31.80
2018-01-15T06:36:33.147Z,25.80
2018-01-15T06:39:01.455Z,32.03
2018-01-15T06:41:29.762Z,34.43
2018-01-15T06:43:58.871Z,34.90
2018-01-15T06:46:27.171Z,26.00
2018-01-15T06:48:56.262Z,25.33
2018-01-15T06:51:24.563Z,35.47
2018-01-15T06:53:53.629Z,27.30
2018-01-15T06:56:22.063Z,27.60
2018-01-15T06:58:50.350Z,31.47
2018-01-15T07:01:19.440Z,24.83
2018-01-15T07:03:47.793Z,25.20
2018-01-15T07:06:16.115Z,26.20
2018-01-15T07:08:44.476Z,28.30
2018-01-15T07:11:12.792Z,30.33
2018-01-15T07:13:41.094Z,27.20
2018-01-15T07:16:09.403Z,59.17
2018-01-15T07:18:38.464Z,30.07
2018-01-15T07:21:06.810Z,38.23
2018-01-15T07:23:35.874Z,27.03
2018-01-15T07:26:04.214Z,26.53
2018-01-15T07:28:33.298Z,25.27
2018-01-15T07:31:01.586Z,23.80
2018-01-15T07:33:30.804Z,30.80
2018-01-15T07:35:59.886Z,25.53
2018-01-15T07:38:28.211Z,24.57
2018-01-15T07:40:57.403Z,29.97
2018-01-15T07:43:25.707Z,35.87
2018-01-15T07:45:54.774Z,28.73
2018-01-15T07:48:23.114Z,24.30
2018-01-15T07:50:52.177Z,21.20
2018-01-15T07:53:20.509Z,29.77
2018-01-15T07:55:48.809Z,33.70
2018-01-15T07:58:17.870Z,30.23
2018-01-15T08:00:46.176Z,35.27
2018-01-15T08:03:14.489Z,25.90
2018-01-15T08:05:42.867Z,30.57
2018-01-15T08:08:11.201Z,30.73
2018-01-15T08:10:39.907Z,28.93
2018-01-15T08:13:08.214Z,29.20
2018-01-15T08:15:36.515Z,28.50
2018-01-15T08:18:04.846Z,25.60
2018-01-15T08:20:33.918Z,26.47
2018-01-15T08:23:02.224Z,26.40
2018-01-15T08:25:30.515Z,27.07
2018-01-15T08:27:58.831Z,26.53
2018-01-15T08:30:27.935Z,25.77
2018-01-15T08:32:57.012Z,24.60
2018-01-15T08:35:25.311Z,27.73
2018-01-15T08:37:53.632Z,26.80
2018-01-15T08:40:22.711Z,25.70
2018-01-15T08:42:51.203Z,30.87
2018-01-15T08:45:19.553Z,24.30
2018-01-15T08:47:47.850Z,21.50
2018-01-15T08:50:16.186Z,27.17
2018-01-15T08:52:45.272Z,22.67
2018-01-15T08:55:13.580Z,22.60
2018-01-15T08:57:41.916Z,24.57
2018-01-15T09:00:10.219Z,24.23
2018-01-15T09:02:38.524Z,22.83
2018-01-15T09:05:06.851Z,21.30
2018-01-15T09:07:35.906Z,32.70
2018-01-15T09:10:04.230Z,23.00
2018-01-15T09:12:32.521Z,21.00
2018-01-15T09:15:00.846Z,24.60
2018-01-15T09:17:29.888Z,23.67
2018-01-15T09:19:58.183Z,21.13
2018-01-15T09:22:26.483Z,21.77
2018-01-15T09:24:54.775Z,18.80
2018-01-15T09:27:23.076Z,22.60
2018-01-15T09:29:51.366Z,23.57
2018-01-15T09:32:19.677Z,19.43
2018-01-15T09:34:47.990Z,14.43
2018-01-15T09:37:16.322Z,19.63
2018-01-15T09:39:44.633Z,19.67
2018-01-15T09:42:12.954Z,23.70
2018-01-15T09:44:42.252Z,21.07
2018-01-15T09:47:11.367Z,17.43
2018-01-15T09:49:39.728Z,19.47
2018-01-15T09:52:08.019Z,19.77
2018-01-15T09:54:37.119Z,19.97
2018-01-15T09:57:05.407Z,20.33
2018-01-15T09:59:33.702Z,19.90
2018-01-15T10:02:02.000Z,22.10
2018-01-15T10:04:30.302Z,22.50
2018-01-15T10:06:59.377Z,24.77
2018-01-15T10:09:27.682Z,23.47
2018-01-15T10:11:55.997Z,24.90
2018-01-15T10:14:25.058Z,25.60
2018-01-15T10:16:53.346Z,19.53
2018-01-15T10:19:21.653Z,27.60
2018-01-15T10:21:49.966Z,21.63
2018-01-15T10:24:18.269Z,20.97
2018-01-15T10:26:47.350Z,28.47
2018-01-15T10:29:15.666Z,23.93
2018-01-15T10:31:44.774Z,19.73
2018-01-15T10:34:13.095Z,21.60
2018-01-15T10:36:41.422Z,25.23
2018-01-15T10:39:09.726Z,27.40
2018-01-15T10:41:38.024Z,19.50
2018-01-15T10:44:06.359Z,19.47
2018-01-15T10:46:34.647Z,21.97
2018-01-15T10:49:03.029Z,26.23
2018-01-15T10:51:31.361Z,21.40
2018-01-15T10:53:59.659Z,23.60
2018-01-15T10:56:27.959Z,20.67
2018-01-15T10:58:56.268Z,27.57
2018-01-15T11:01:27.479Z,23.63
2018-01-15T11:03:55.831Z,24.13
2018-01-15T11:06:24.894Z,22.40
2018-01-15T11:08:53.188Z,18.57
2018-01-15T11:11:21.544Z,19.30
2018-01-15T11:13:49.835Z,17.07
2018-01-15T11:16:18.134Z,20.10
2018-01-15T11:18:46.483Z,18.07
2018-01-15T11:21:15.759Z,20.37
2018-01-15T11:23:44.059Z,22.17
2018-01-15T11:26:12.486Z,23.70
2018-01-15T11:28:40.795Z,26.10
2018-01-15T11:31:09.090Z,22.33
2018-01-15T11:33:37.419Z,21.43
2018-01-15T11:36:05.703Z,19.23
2018-01-15T11:38:34.013Z,24.87
2018-01-15T11:41:02.345Z,23.00
2018-01-15T11:43:30.637Z,23.27
2018-01-15T11:45:58.963Z,25.73
2018-01-15T11:48:27.292Z,21.93
2018-01-15T11:50:56.367Z,26.67
2018-01-15T11:53:24.663Z,24.27
2018-01-15T11:55:52.954Z,26.03
2018-01-15T11:58:21.255Z,20.30
2018-01-15T12:00:49.587Z,25.23
2018-01-15T12:03:17.880Z,22.43
2018-01-15T12:05:46.243Z,23.50
2018-01-15T12:08:14.590Z,20.07
2018-01-15T12:10:42.910Z,20.53
2018-01-15T12:13:11.388Z,20.47
2018-01-15T12:15:39.678Z,24.57
2018-01-15T12:18:08.047Z,34.40
2018-01-15T12:20:36.366Z,24.73
2018-01-15T12:23:04.658Z,22.50
2018-01-15T12:25:32.955Z,19.93
2018-01-15T12:28:01.288Z,25.53
2018-01-15T12:30:29.583Z,22.50
2018-01-15T12:32:57.868Z,21.10
2018-01-15T12:35:26.204Z,20.80
2018-01-15T12:37:55.327Z,27.57
2018-01-15T12:40:23.625Z,25.40
2018-01-15T12:42:52.684Z,24.50
2018-01-15T12:45:20.970Z,21.20
2018-01-15T12:47:49.273Z,22.00
2018-01-15T12:50:17.588Z,19.97
2018-01-15T12:52:45.941Z,27.30
2018-01-15T12:55:14.211Z,28.57
2018-01-15T12:57:42.575Z,21.70
2018-01-15T13:00:11.777Z,23.50
2018-01-15T13:02:40.110Z,23.07
2018-01-15T13:05:08.403Z,26.03
2018-01-15T13:07:48.518Z,27.40
2018-01-15T13:10:16.839Z,24.63
2018-01-15T13:12:45.947Z,24.47
2018-01-15T13:15:14.283Z,24.03
2018-01-15T13:17:42.586Z,26.00
2018-01-15T13:20:11.893Z,26.40
2018-01-15T13:22:40.312Z,25.20
2018-01-15T13:25:08.621Z,25.47
2018-01-15T13:27:38.152Z,33.43
2018-01-15T13:30:06.461Z,27.17
2018-01-15T13:32:34.774Z,29.47
2018-01-15T13:35:03.076Z,36.70
2018-01-15T13:37:31.368Z,30.30
2018-01-15T13:39:59.680Z,28.10
2018-01-15T13:42:28.730Z,28.93
2018-01-15T13:44:57.066Z,29.17
2018-01-15T13:47:25.383Z,30.77
2018-01-15T13:49:54.476Z,32.23
2018-01-15T13:52:23.534Z,25.10
2018-01-15T13:54:51.842Z,26.57
2018-01-15T13:57:20.137Z,33.17
2018-01-15T13:59:48.439Z,30.00
2018-01-15T14:02:16.766Z,28.87
2018-01-15T14:04:45.096Z,37.00
2018-01-15T14:07:13.395Z,51.53
2018-01-15T14:09:41.739Z,33.23
2018-01-15T14:12:10.045Z,34.43
2018-01-15T14:14:40.115Z,30.30
2018-01-15T14:17:08.414Z,31.43
2018-01-15T14:19:36.713Z,92.67
2018-01-15T14:22:05.083Z,32.10
2018-01-15T14:24:33.391Z,34.50
2018-01-15T14:27:01.727Z,53.83
2018-01-15T14:29:30.032Z,40.40
2018-01-15T14:31:58.344Z,35.17
2018-01-15T14:34:26.635Z,41.17
2018-01-15T14:36:54.958Z,39.10
2018-01-15T14:39:24.063Z,34.37
2018-01-15T14:41:53.161Z,35.73
2018-01-15T14:44:21.486Z,34.60
2018-01-15T14:46:49.788Z,29.40
2018-01-15T14:49:18.127Z,32.50
2018-01-15T14:51:46.560Z,33.53
2018-01-15T14:54:14.876Z,35.33
2018-01-15T14:56:43.197Z,33.20
2018-01-15T14:59:11.510Z,36.07
2018-01-15T15:01:40.576Z,31.57
2018-01-15T15:04:09.031Z,32.27
2018-01-15T15:06:37.332Z,32.43
2018-01-15T15:09:05.627Z,33.43
2018-01-15T15:11:33.922Z,35.90
2018-01-15T15:14:02.219Z,33.80
2018-01-15T15:16:30.563Z,31.40
2018-01-15T15:18:59.618Z,29.83
2018-01-15T15:21:27.915Z,26.93
2018-01-15T15:23:56.219Z,27.83
2018-01-15T15:26:24.514Z,27.63
2018-01-15T15:28:52.974Z,26.67
2018-01-15T15:31:21.270Z,19.90
2018-01-15T15:33:49.589Z,20.20
2018-01-15T15:36:18.809Z,21.00
2018-01-15T15:41:44.978Z,23.83
2018-01-15T15:57:04.351Z,14.67
2018-01-15T15:59:32.690Z,12.30
2018-01-15T16:02:01.010Z,11.50
2018-01-15T16:04:30.075Z,15.77
2018-01-15T16:06:58.359Z,11.87
2018-01-15T16:09:26.654Z,11.33
2018-01-15T16:11:54.956Z,8.77
2018-01-15T16:14:23.294Z,10.73
2018-01-15T16:16:52.358Z,14.27
2018-01-15T16:19:21.495Z,12.80
2018-01-15T16:22:02.659Z,13.40
2018-01-15T16:24:30.966Z,11.00
2018-01-15T16:26:59.261Z,8.97
2018-01-15T16:31:48.374Z,10.30
2018-01-15T16:34:17.482Z,10.40
2018-01-15T16:36:46.556Z,10.43
2018-01-15T16:39:14.854Z,9.37
2018-01-15T16:41:44.676Z,8.27
2018-01-15T16:44:12.990Z,8.73
2018-01-15T16:46:41.286Z,10.00
2018-01-15T16:49:10.341Z,9.20
2018-01-15T16:51:38.683Z,8.03
2018-01-15T16:54:06.954Z,7.57
2018-01-15T16:56:35.309Z,7.37
2018-01-15T16:59:04.323Z,7.60
2018-01-15T17:01:32.633Z,7.70
2018-01-15T17:04:00.938Z,7.30
2018-01-15T17:06:29.266Z,7.50
2018-01-15T17:08:58.349Z,9.03
2018-01-15T17:11:26.645Z,6.53
2018-01-15T17:13:55.701Z,6.40
2018-01-15T17:16:24.047Z,9.10
2018-01-15T17:18:52.357Z,6.70
2018-01-15T17:21:20.688Z,5.90
2018-01-15T17:23:48.978Z,6.33
2018-01-15T17:26:17.318Z,6.10
2018-01-15T17:28:46.389Z,4.67
2018-01-15T17:31:16.190Z,3.80
2018-01-15T17:33:44.510Z,3.73
2018-01-15T17:36:12.810Z,3.63
2018-01-15T17:38:41.096Z,4.23
2018-01-15T17:41:10.893Z,3.33
2018-01-15T17:43:39.249Z,3.70
2018-01-15T17:46:08.350Z,3.77
2018-01-15T17:48:37.390Z,4.17
2018-01-15T17:51:05.691Z,4.87
2018-01-15T17:53:33.971Z,4.50
2018-01-15T17:56:02.250Z,4.10
2018-01-15T17:58:30.567Z,4.00
2018-01-15T18:00:58.842Z,4.53
2018-01-15T18:03:27.137Z,4.50
2018-01-15T18:05:55.431Z,4.60
2018-01-15T18:08:23.726Z,8.93
2018-01-15T18:10:52.113Z,4.63
2018-01-15T18:13:20.424Z,6.33
2018-01-15T18:15:48.726Z,5.30
2018-01-15T18:18:17.090Z,4.40
2018-01-15T18:20:45.439Z,4.77
2018-01-15T18:23:13.776Z,4.00
2018-01-15T18:25:42.065Z,4.63
2018-01-15T18:28:10.358Z,3.40
2018-01-15T18:30:38.658Z,4.80
2018-01-15T18:33:08.718Z,3.60
2018-01-15T18:35:37.815Z,4.50
2018-01-15T18:38:06.874Z,3.20
2018-01-15T18:40:35.159Z,3.33
2018-01-15T18:43:03.443Z,2.33
2018-01-15T18:45:31.733Z,2.73
2018-01-15T18:48:00.062Z,2.47
2018-01-15T18:50:28.344Z,2.80
2018-01-15T18:52:56.658Z,2.87
2018-01-15T18:55:24.994Z,2.27
2018-01-15T18:57:53.277Z,2.27
2018-01-15T19:00:21.624Z,2.50
2018-01-15T19:02:49.922Z,2.57
2018-01-15T19:05:18.996Z,2.63
2018-01-15T19:07:47.353Z,2.13
2018-01-15T19:10:15.752Z,1.70
2018-01-15T19:12:44.090Z,2.20
2018-01-15T19:15:13.166Z,1.43
2018-01-15T19:17:41.492Z,1.60
2018-01-15T19:20:09.774Z,1.43
2018-01-15T19:22:38.835Z,1.57
2018-01-15T19:25:07.146Z,1.60
2018-01-15T19:27:35.596Z,1.60
2018-01-15T19:30:04.685Z,1.83
2018-01-15T19:32:33.739Z,1.50
2018-01-15T19:35:04.611Z,1.30
2018-01-15T19:37:53.519Z,1.43
2018-01-15T19:40:21.902Z,1.30
2018-01-15T19:42:51.739Z,1.43
2018-01-15T19:48:30.002Z,0.90
2018-01-15T19:51:04.825Z,1.00
2018-01-15T19:53:38.946Z,1.50
2018-01-15T19:56:13.046Z,1.90
2018-01-15T19:58:46.914Z,1.10
2018-01-15T20:01:22.548Z,1.03
2018-01-15T20:03:56.534Z,1.50
2018-01-15T20:06:31.214Z,0.93
2018-01-15T20:11:58.398Z,0.90
2018-01-15T20:14:26.689Z,1.57
2018-01-15T20:16:54.991Z,2.50
2018-01-15T20:19:23.279Z,1.37
2018-01-15T20:21:51.613Z,4.50
2018-01-15T20:24:19.947Z,4.03
2018-01-15T20:26:48.272Z,3.20
2018-01-15T20:29:18.069Z,1.60
2018-01-15T20:31:46.361Z,1.03
2018-01-15T20:34:15.407Z,1.43
2018-01-15T20:36:45.209Z,2.07
2018-01-15T20:39:13.538Z,3.87
2018-01-15T20:41:42.584Z,0.90
2018-01-15T20:44:10.864Z,0.90
2018-01-15T20:46:39.142Z,0.90
2018-01-15T20:49:07.436Z,1.07
2018-01-15T20:51:35.765Z,1.10
2018-01-15T20:54:04.042Z,1.30
2018-01-15T20:56:32.370Z,0.80
2018-01-15T20:59:02.167Z,1.23
2018-01-15T21:01:30.441Z,0.90
2018-01-15T21:03:58.742Z,0.70
2018-01-15T21:06:27.064Z,1.73
2018-01-15T21:08:55.362Z,0.80
2018-01-15T21:11:24.420Z,0.90
2018-01-15T21:13:52.743Z,1.53
2018-01-15T21:16:22.527Z,1.10
2018-01-15T21:18:50.864Z,1.60
2018-01-15T21:21:19.231Z,0.70
2018-01-15T21:23:47.519Z,0.63
2018-01-15T21:26:15.830Z,0.67
2018-01-15T21:28:45.625Z,0.70
2018-01-15T21:31:13.954Z,0.60
2018-01-15T21:33:43.006Z,0.60
2018-01-15T21:36:11.309Z,0.60
2018-01-15T21:38:39.595Z,0.60
2018-01-15T21:41:07.882Z,0.70
2018-01-15T21:43:36.198Z,0.50
2018-01-15T21:46:04.481Z,0.43
2018-01-15T21:48:32.767Z,0.40
2018-01-15T21:51:01.110Z,0.60
2018-01-15T21:53:30.235Z,0.50
2018-01-15T21:55:58.576Z,0.50
2018-01-15T21:58:26.856Z,0.53
2018-01-15T22:00:55.130Z,0.40
2018-01-15T22:03:23.429Z,0.60
2018-01-15T22:05:51.754Z,0.50
2018-01-15T22:08:21.546Z,0.67
2018-01-15T22:10:50.607Z,0.40
2018-01-15T22:13:19.669Z,0.60
2018-01-15T22:15:47.951Z,0.50
2018-01-15T22:18:16.254Z,0.53
2018-01-15T22:20:44.574Z,0.57
2018-01-15T22:23:13.722Z,0.40
2018-01-15T22:25:42.001Z,0.50
2018-01-15T22:28:10.495Z,0.50
2018-01-15T22:30:39.674Z,0.50
2018-01-15T22:33:08.739Z,1.27
2018-01-15T22:35:37.030Z,0.50
2018-01-15T22:38:05.335Z,0.40
2018-01-15T22:40:33.631Z,0.50
2018-01-15T22:43:01.940Z,0.40
2018-01-15T22:45:31.978Z,0.70
2018-01-15T22:48:00.301Z,0.40
2018-01-15T22:50:29.451Z,0.50
2018-01-15T22:52:57.752Z,0.40
2018-01-15T22:55:26.058Z,0.50
2018-01-15T22:57:55.116Z,0.40
2018-01-15T23:00:23.398Z,0.40
2018-01-15T23:02:51.680Z,0.40
2018-01-15T23:05:19.975Z,0.40
2018-01-15T23:07:48.307Z,0.50
2018-01-15T23:10:16.606Z,0.40
2018-01-15T23:12:46.445Z,0.40
2018-01-15T23:15:15.507Z,0.40
2018-01-15T23:17:43.790Z,0.30
2018-01-15T23:20:12.078Z,0.30
2018-01-15T23:22:40.363Z,0.40
2018-01-15T23:25:08.679Z,0.30
2018-01-15T23:27:36.959Z,0.40
2018-01-15T23:30:05.244Z,0.40
2018-01-15T23:32:33.526Z,0.40
2018-01-15T23:35:01.826Z,0.30
2018-01-15T23:37:30.125Z,0.30
2018-01-15T23:39:58.402Z,0.40
2018-01-15T23:42:26.701Z,0.40
2018-01-15T23:44:54.978Z,0.40
2018-01-15T23:47:23.269Z,0.50
2018-01-15T23:49:51.582Z,0.57
2018-01-15T23:52:19.879Z,0.40
2018-01-15T23:54:49.666Z,0.50
2018-01-15T23:57:17.966Z,0.50
2018-01-15T23:59:46.269Z,0.50
